Time;durP1;ratioP1;P1;durP2;ratioP2;P2;SDS_P1;SDS_P2;PMS_P1;PMS_P2;Temp;Humidity;BMP_temperature;BMP_pressure;BME280_temperature;BME280_humidity;BME280_pressure;Samples;Min_cycle;Max_cycle;Signal;HPM_P1;HPM_P2
2021/12/03 00:00:46;;;;;;;10.93;8.07;;;0.40;99.90;;;;;;5054246;28;20562;-75
2021/12/03 00:03:12;;;;;;;13.10;8.30;;;0.40;99.90;;;;;;5051814;28;20937;-75
2021/12/03 00:05:39;;;;;;;13.13;7.80;;;0.40;99.90;;;;;;5069778;28;20123;-75
2021/12/03 00:08:06;;;;;;;10.57;6.77;;;0.40;99.90;;;;;;5069524;28;21456;-75
2021/12/03 00:10:34;;;;;;;11.80;7.67;;;0.40;99.90;;;;;;5070204;28;20048;-75
2021/12/03 00:13:00;;;;;;;14.33;8.70;;;0.50;99.90;;;;;;5058476;28;20048;-75
2021/12/03 00:15:27;;;;;;;13.97;8.80;;;0.50;99.90;;;;;;5036912;28;20101;-75
2021/12/03 00:17:54;;;;;;;12.33;9.33;;;0.50;99.90;;;;;;5052601;28;20047;-75
2021/12/03 00:20:22;;;;;;;16.57;10.90;;;0.70;99.90;;;;;;5053381;28;20090;-72
2021/12/03 00:22:51;;;;;;;16.43;12.33;;;0.60;99.90;;;;;;5052315;28;20052;-75
2021/12/03 00:25:17;;;;;;;24.03;12.77;;;0.60;99.90;;;;;;5070086;28;20538;-76
2021/12/03 00:27:43;;;;;;;16.87;12.27;;;0.50;99.90;;;;;;5069612;28;20044;-75
2021/12/03 00:30:12;;;;;;;18.37;13.33;;;0.50;99.90;;;;;;5053398;28;20055;-75
2021/12/03 00:32:38;;;;;;;22.07;14.90;;;0.50;99.90;;;;;;5053137;28;20055;-75
2021/12/03 00:35:05;;;;;;;20.57;14.90;;;0.60;99.90;;;;;;5052483;28;20040;-75
2021/12/03 00:37:31;;;;;;;21.60;15.03;;;0.50;99.90;;;;;;5054046;28;20063;-75
2021/12/03 00:39:57;;;;;;;20.13;14.90;;;0.50;99.90;;;;;;5069339;28;20049;-75
2021/12/03 00:42:25;;;;;;;27.30;17.00;;;0.60;99.90;;;;;;5053018;28;20052;-75
2021/12/03 00:44:54;;;;;;;23.70;16.43;;;0.50;99.90;;;;;;5052572;28;20047;-75
2021/12/03 00:47:21;;;;;;;21.77;16.77;;;0.50;99.90;;;;;;5053473;28;20048;-75
2021/12/03 00:49:47;;;;;;;23.03;16.63;;;0.60;99.90;;;;;;5068578;28;20045;-75
2021/12/03 00:52:13;;;;;;;26.00;18.97;;;0.60;99.90;;;;;;5036021;28;20127;-75
2021/12/03 00:54:39;;;;;;;23.87;18.20;;;0.60;99.90;;;;;;5066347;28;20476;-74
2021/12/03 00:57:06;;;;;;;21.83;17.27;;;0.70;99.90;;;;;;5074159;28;20056;-72
2021/12/03 00:59:31;;;;;;;22.10;18.27;;;0.70;99.90;;;;;;5087973;28;20067;-72
2021/12/03 01:01:57;;;;;;;25.57;18.97;;;0.80;99.90;;;;;;5070763;28;20186;-72
2021/12/03 01:04:23;;;;;;;26.57;19.10;;;0.70;99.90;;;;;;5053001;28;20041;-72
2021/12/03 01:06:49;;;;;;;22.07;17.27;;;0.80;99.90;;;;;;5058599;28;20380;-71
2021/12/03 01:09:15;;;;;;;26.80;18.83;;;0.80;99.90;;;;;;5065474;28;20171;-71
2021/12/03 01:11:41;;;;;;;27.70;18.10;;;0.80;99.90;;;;;;5069465;28;20491;-71
2021/12/03 01:14:08;;;;;;;32.70;17.40;;;0.80;99.90;;;;;;5065588;28;20028;-72
2021/12/03 01:16:34;;;;;;;21.57;16.73;;;0.80;99.90;;;;;;5053973;28;20044;-71
2021/12/03 01:19:01;;;;;;;23.63;17.40;;;0.80;99.90;;;;;;5063965;28;20044;-74
2021/12/03 01:21:27;;;;;;;24.67;17.73;;;0.90;99.90;;;;;;5073080;28;20041;-73
2021/12/03 01:23:54;;;;;;;25.13;18.80;;;0.90;99.90;;;;;;5056760;28;20047;-71
2021/12/03 01:26:21;;;;;;;23.50;18.63;;;0.90;99.90;;;;;;5057842;28;20173;-75
2021/12/03 01:28:47;;;;;;;27.07;19.97;;;0.90;99.90;;;;;;5076990;28;20040;-74
2021/12/03 01:31:14;;;;;;;24.60;19.43;;;0.90;99.90;;;;;;5055015;28;20089;-74
2021/12/03 01:33:40;;;;;;;25.27;19.83;;;0.90;99.90;;;;;;5053642;28;20055;-75
2021/12/03 01:36:07;;;;;;;27.47;21.70;;;0.90;99.90;;;;;;5080215;28;20133;-74
2021/12/03 01:38:32;;;;;;;32.37;23.87;;;0.90;99.90;;;;;;5079051;28;20057;-75
2021/12/03 01:40:59;;;;;;;31.40;25.03;;;0.90;99.90;;;;;;5067535;28;20131;-74
2021/12/03 01:43:26;;;;;;;31.97;26.00;;;0.90;99.90;;;;;;5048872;28;20051;-74
2021/12/03 01:45:55;;;;;;;37.30;27.70;;;1.00;99.90;;;;;;5084559;28;20169;-74
2021/12/03 01:48:21;;;;;;;31.53;27.37;;;0.90;99.90;;;;;;5084262;28;20052;-74
2021/12/03 01:50:48;;;;;;;40.47;31.60;;;0.90;99.90;;;;;;5052610;28;20043;-76
2021/12/03 01:53:16;;;;;;;39.47;31.37;;;0.90;99.90;;;;;;5058735;28;20158;-77
2021/12/03 01:55:43;;;;;;;43.07;34.17;;;0.90;99.90;;;;;;5073783;28;20044;-76
2021/12/03 01:58:10;;;;;;;39.50;33.90;;;1.00;99.90;;;;;;5073060;28;20045;-77
2021/12/03 02:00:53;;;;;;;47.50;39.77;;;0.90;99.90;;;;;;5077093;28;20045;-76
2021/12/03 02:03:27;;;;;;;50.53;40.83;;;1.00;99.90;;;;;;5052036;28;20048;-77
2021/12/03 02:05:54;;;;;;;48.47;43.17;;;1.00;99.90;;;;;;5063869;28;20098;-74
2021/12/03 02:08:20;;;;;;;52.37;44.70;;;1.00;99.90;;;;;;5074440;28;20140;-74
2021/12/03 02:10:46;;;;;;;52.00;46.43;;;1.00;99.90;;;;;;5050484;28;20455;-74
2021/12/03 02:13:13;;;;;;;52.23;46.57;;;1.00;99.90;;;;;;5062754;28;20126;-74
2021/12/03 02:15:41;;;;;;;55.20;48.97;;;1.10;99.90;;;;;;5068273;28;20040;-74
2021/12/03 02:18:08;;;;;;;54.33;48.43;;;1.10;99.90;;;;;;5079595;28;20143;-74
2021/12/03 02:20:35;;;;;;;57.20;51.23;;;1.00;99.90;;;;;;5069462;28;20052;-74
2021/12/03 02:23:02;;;;;;;54.37;48.90;;;1.00;99.90;;;;;;5060940;28;20495;-74
2021/12/03 02:25:31;;;;;;;55.07;49.70;;;1.00;99.90;;;;;;5072471;28;20126;-74
2021/12/03 02:27:57;;;;;;;60.27;54.27;;;1.00;99.90;;;;;;5061336;28;20097;-74
2021/12/03 02:30:24;;;;;;;57.47;51.73;;;1.10;99.90;;;;;;5067491;28;20048;-74
2021/12/03 02:32:51;;;;;;;58.53;52.57;;;1.10;99.90;;;;;;5067010;28;20075;-74
2021/12/03 02:35:19;;;;;;;59.13;53.17;;;1.00;99.90;;;;;;5059925;28;20044;-74
2021/12/03 02:37:45;;;;;;;55.77;50.30;;;1.10;99.90;;;;;;5064718;28;20067;-74
2021/12/03 02:40:11;;;;;;;58.23;52.60;;;1.00;99.90;;;;;;5073098;28;20132;-73
2021/12/03 02:42:37;;;;;;;57.90;52.40;;;1.00;99.90;;;;;;5063487;28;20051;-73
2021/12/03 02:45:05;;;;;;;57.57;51.97;;;1.00;99.90;;;;;;5078320;28;20183;-74
2021/12/03 02:47:31;;;;;;;54.40;49.33;;;1.00;99.90;;;;;;5074079;28;20047;-74
2021/12/03 02:49:57;;;;;;;57.23;51.90;;;1.00;99.90;;;;;;5058704;28;20250;-74
2021/12/03 02:52:23;;;;;;;51.50;46.80;;;1.00;99.90;;;;;;5041729;28;20040;-74
2021/12/03 02:54:49;;;;;;;57.63;52.03;;;0.90;99.90;;;;;;5050745;28;20208;-74
2021/12/03 02:57:15;;;;;;;54.87;49.47;;;0.90;99.90;;;;;;5058891;28;20056;-74
2021/12/03 02:59:41;;;;;;;53.00;48.10;;;1.00;99.90;;;;;;5048999;28;20042;-74
2021/12/03 03:02:07;;;;;;;55.60;50.30;;;1.00;99.90;;;;;;5069018;28;20491;-74
2021/12/03 03:04:33;;;;;;;50.93;46.27;;;1.00;99.90;;;;;;5049576;28;20089;-74
2021/12/03 03:07:00;;;;;;;51.83;46.80;;;1.00;99.90;;;;;;5048693;28;20044;-74
2021/12/03 03:09:27;;;;;;;51.80;47.03;;;1.00;99.90;;;;;;5067449;28;20044;-74
2021/12/03 03:11:53;;;;;;;55.10;48.57;;;1.00;99.90;;;;;;5066700;28;20147;-74
2021/12/03 03:14:19;;;;;;;54.60;49.23;;;1.00;99.90;;;;;;5066917;28;20048;-74
2021/12/03 03:16:46;;;;;;;53.03;48.13;;;1.00;99.90;;;;;;5065431;28;20105;-74
2021/12/03 03:19:14;;;;;;;51.40;46.63;;;1.00;99.90;;;;;;5067308;28;20117;-74
2021/12/03 03:21:41;;;;;;;56.27;50.73;;;0.90;99.90;;;;;;5066371;28;20040;-74
2021/12/03 03:24:09;;;;;;;52.73;47.70;;;0.90;99.90;;;;;;5052296;28;20048;-74
2021/12/03 03:26:36;;;;;;;52.47;47.60;;;0.90;99.90;;;;;;5070840;28;20058;-75
2021/12/03 03:29:04;;;;;;;53.47;48.33;;;0.90;99.90;;;;;;5070080;28;20134;-74
2021/12/03 03:31:35;;;;;;;52.97;47.97;;;0.90;99.90;;;;;;5056881;28;20079;-74
2021/12/03 03:34:02;;;;;;;51.30;46.57;;;0.90;99.90;;;;;;5070375;28;20123;-74
2021/12/03 03:36:35;;;;;;;48.53;44.13;;;0.90;99.90;;;;;;5034811;28;20345;-74
2021/12/03 03:39:04;;;;;;;50.20;45.37;;;0.90;99.90;;;;;;5065600;28;20414;-75
2021/12/03 03:41:30;;;;;;;50.37;45.63;;;0.90;99.90;;;;;;5068035;28;20132;-74
2021/12/03 03:43:56;;;;;;;49.47;44.80;;;0.90;99.90;;;;;;5050043;28;20118;-74
2021/12/03 03:46:22;;;;;;;49.80;45.20;;;0.90;99.90;;;;;;5068690;28;20151;-74
2021/12/03 03:48:48;;;;;;;50.43;45.73;;;0.90;99.90;;;;;;5065369;28;20518;-74
2021/12/03 03:51:14;;;;;;;49.70;44.87;;;0.90;99.90;;;;;;5066138;28;20534;-74
2021/12/03 03:53:41;;;;;;;45.30;41.23;;;0.90;99.90;;;;;;5049503;28;20525;-75
2021/12/03 03:56:08;;;;;;;50.20;45.30;;;0.90;99.90;;;;;;5065709;28;20049;-74
2021/12/03 03:58:37;;;;;;;48.27;43.87;;;0.90;99.90;;;;;;5066317;28;20036;-75
2021/12/03 04:01:06;;;;;;;50.23;45.50;;;0.90;99.90;;;;;;5065193;28;20068;-74
2021/12/03 04:03:32;;;;;;;53.33;48.13;;;0.90;99.90;;;;;;5050118;28;20487;-75
2021/12/03 04:05:59;;;;;;;55.93;50.83;;;0.90;99.90;;;;;;5068021;28;20054;-74
2021/12/03 04:08:29;;;;;;;52.27;47.57;;;0.90;99.90;;;;;;5086299;28;20994;-75
2021/12/03 04:11:00;;;;;;;53.53;48.40;;;0.90;99.90;;;;;;5086127;28;20044;-75
2021/12/03 04:13:27;;;;;;;52.83;47.90;;;0.90;99.90;;;;;;5072046;28;20795;-72
2021/12/03 04:15:53;;;;;;;53.03;48.20;;;0.90;99.90;;;;;;5048151;28;20048;-72
2021/12/03 04:18:19;;;;;;;50.10;45.73;;;0.90;99.90;;;;;;5063713;28;20706;-71
2021/12/03 04:20:46;;;;;;;49.70;45.00;;;0.90;99.90;;;;;;5062523;28;20119;-71
2021/12/03 04:23:17;;;;;;;50.57;45.93;;;0.90;99.90;;;;;;5063103;28;20056;-71
2021/12/03 04:25:44;;;;;;;48.63;44.08;;;1.00;99.90;;;;;;5046239;28;20052;-71
2021/12/03 04:28:10;;;;;;;53.23;48.00;;;0.90;99.90;;;;;;5047133;28;20061;-72
2021/12/03 04:30:36;;;;;;;50.80;46.03;;;0.90;99.90;;;;;;5063782;28;20865;-75
2021/12/03 04:33:02;;;;;;;49.23;44.67;;;1.00;99.90;;;;;;5067591;28;20059;-75
2021/12/03 04:35:31;;;;;;;46.70;42.53;;;0.90;99.90;;;;;;5069467;28;20088;-75
2021/12/03 04:37:58;;;;;;;47.30;42.83;;;0.90;99.90;;;;;;5068859;28;20044;-74
2021/12/03 04:40:25;;;;;;;49.77;45.13;;;1.00;99.90;;;;;;5054652;28;20491;-74
2021/12/03 04:42:52;;;;;;;46.97;42.57;;;1.00;99.90;;;;;;5043912;28;20160;-75
2021/12/03 04:45:20;;;;;;;46.23;41.73;;;1.00;99.90;;;;;;5068824;28;20087;-75
2021/12/03 04:47:47;;;;;;;42.57;38.67;;;0.90;99.90;;;;;;5068818;28;20072;-74
2021/12/03 04:50:14;;;;;;;45.83;41.67;;;1.00;99.90;;;;;;5070057;28;20071;-74
2021/12/03 04:52:40;;;;;;;46.70;42.37;;;0.90;99.90;;;;;;5036315;28;20046;-75
2021/12/03 04:55:07;;;;;;;46.10;41.63;;;1.10;99.90;;;;;;5052950;28;20036;-71
2021/12/03 04:57:34;;;;;;;42.47;38.60;;;1.00;99.90;;;;;;5052880;28;20094;-72
2021/12/03 04:59:59;;;;;;;43.07;39.17;;;1.00;99.90;;;;;;5067351;28;20056;-71
2021/12/03 05:02:26;;;;;;;44.17;40.07;;;1.00;99.90;;;;;;5057630;28;20094;-71
2021/12/03 05:04:55;;;;;;;45.67;41.27;;;1.10;99.90;;;;;;5052373;28;20041;-72
2021/12/03 05:09:53;;;;;;;48.20;43.90;;;1.00;99.90;;;;;;5052979;28;20058;-72
2021/12/03 05:12:19;;;;;;;48.17;43.73;;;1.10;99.90;;;;;;5035541;28;20691;-72
2021/12/03 05:14:44;;;;;;;47.43;43.07;;;1.00;99.90;;;;;;5068812;28;20135;-71
2021/12/03 05:17:10;;;;;;;48.80;44.43;;;1.00;99.90;;;;;;5068772;28;20048;-71
2021/12/03 05:19:36;;;;;;;50.23;45.60;;;1.00;99.90;;;;;;5035428;28;20042;-71
2021/12/03 05:22:02;;;;;;;48.93;44.13;;;1.10;99.90;;;;;;5068571;28;20111;-71
2021/12/03 05:24:31;;;;;;;45.33;41.17;;;1.00;99.90;;;;;;5067685;28;20044;-71
2021/12/03 05:26:57;;;;;;;48.53;44.10;;;1.00;99.90;;;;;;5068321;28;20044;-72
2021/12/03 05:29:23;;;;;;;45.60;41.07;;;1.00;99.90;;;;;;5068521;28;20109;-71
2021/12/03 05:31:48;;;;;;;44.40;40.30;;;1.00;99.90;;;;;;5066691;28;20298;-72
2021/12/03 05:34:16;;;;;;;46.43;42.17;;;1.10;99.90;;;;;;5071622;28;20181;-72
2021/12/03 05:36:43;;;;;;;45.77;41.30;;;1.10;99.90;;;;;;5088616;28;20039;-75
2021/12/03 05:39:09;;;;;;;43.07;38.80;;;1.20;99.90;;;;;;5087839;28;20714;-74
2021/12/03 05:41:35;;;;;;;41.83;37.63;;;1.20;99.90;;;;;;5088025;28;20055;-74
2021/12/03 05:44:03;;;;;;;42.47;38.43;;;1.30;99.90;;;;;;5077148;28;20040;-75
2021/12/03 05:46:29;;;;;;;41.63;37.87;;;1.30;99.90;;;;;;5068140;28;20133;-75
2021/12/03 05:48:56;;;;;;;40.83;37.13;;;1.30;99.90;;;;;;5060198;28;20072;-74
2021/12/03 05:51:22;;;;;;;41.70;37.60;;;1.20;99.90;;;;;;5068075;28;20063;-75
2021/12/03 05:53:47;;;;;;;42.20;38.17;;;1.30;99.90;;;;;;5051208;28;20052;-73
2021/12/03 05:56:14;;;;;;;39.33;35.50;;;1.30;99.90;;;;;;5051438;28;20083;-75
2021/12/03 05:58:40;;;;;;;40.17;36.50;;;1.30;99.90;;;;;;5067947;28;20040;-71
2021/12/03 06:01:06;;;;;;;36.67;33.30;;;1.30;99.90;;;;;;5076230;28;20055;-72
2021/12/03 06:03:32;;;;;;;35.63;32.23;;;1.40;99.90;;;;;;5054216;28;20067;-71
2021/12/03 06:05:57;;;;;;;36.17;32.47;;;1.40;99.90;;;;;;5054230;28;20074;-71
2021/12/03 06:08:23;;;;;;;35.67;32.47;;;1.30;99.90;;;;;;5087946;28;20101;-74
2021/12/03 06:10:49;;;;;;;34.10;30.80;;;1.40;99.90;;;;;;5070889;28;20075;-74
2021/12/03 06:13:15;;;;;;;34.83;31.50;;;1.40;99.90;;;;;;5075610;28;20052;-74
2021/12/03 06:15:41;;;;;;;33.77;30.47;;;1.40;99.90;;;;;;5067627;28;20838;-74
2021/12/03 06:18:07;;;;;;;32.57;29.33;;;1.40;99.90;;;;;;5050636;28;20084;-74
2021/12/03 06:20:32;;;;;;;34.27;30.87;;;1.40;99.90;;;;;;5050796;28;20076;-74
2021/12/03 06:22:58;;;;;;;31.03;27.97;;;1.40;99.90;;;;;;5050399;28;20044;-75
2021/12/03 06:25:24;;;;;;;31.20;28.27;;;1.40;99.90;;;;;;5067088;28;20106;-72
2021/12/03 06:27:51;;;;;;;31.50;28.43;;;1.50;99.90;;;;;;5071353;28;20616;-71
2021/12/03 06:30:19;;;;;;;31.03;27.80;;;1.50;99.90;;;;;;5062207;28;20051;-72
2021/12/03 06:32:46;;;;;;;28.63;25.77;;;1.50;99.90;;;;;;5054758;28;20111;-71
2021/12/03 06:35:13;;;;;;;30.77;27.67;;;1.50;99.90;;;;;;5040951;28;21231;-71
2021/12/03 06:37:39;;;;;;;30.30;27.37;;;1.50;99.90;;;;;;5069505;28;20106;-71
2021/12/03 06:40:09;;;;;;;29.23;26.23;;;1.50;99.90;;;;;;5045662;28;20028;-72
2021/12/03 06:42:35;;;;;;;29.17;26.37;;;1.50;99.90;;;;;;5066714;28;20109;-72
2021/12/03 06:45:03;;;;;;;29.70;26.47;;;1.60;99.90;;;;;;5052455;28;20094;-72
2021/12/03 06:47:31;;;;;;;28.07;25.13;;;1.60;99.90;;;;;;5048688;28;20045;-71
2021/12/03 06:49:57;;;;;;;27.73;24.87;;;1.60;99.90;;;;;;5081128;28;20399;-71
2021/12/03 06:52:23;;;;;;;27.50;23.67;;;1.60;99.90;;;;;;5068511;28;20070;-72
2021/12/03 06:54:56;;;;;;;25.40;22.80;;;1.60;99.90;;;;;;5067655;28;20054;-73
2021/12/03 06:57:22;;;;;;;28.90;25.60;;;1.80;99.90;;;;;;5068442;28;20363;-73
2021/12/03 06:59:47;;;;;;;27.67;24.20;;;1.70;99.90;;;;;;5075992;28;20041;-73
2021/12/03 07:02:14;;;;;;;28.40;25.33;;;1.70;99.90;;;;;;5074096;28;20051;-74
2021/12/03 07:04:40;;;;;;;32.23;27.30;;;1.70;99.90;;;;;;5062351;28;20046;-73
2021/12/03 07:07:06;;;;;;;27.93;24.27;;;1.70;99.90;;;;;;5050364;28;20044;-73
2021/12/03 07:09:32;;;;;;;30.53;25.50;;;1.70;99.90;;;;;;5064959;28;20072;-72
2021/12/03 07:11:58;;;;;;;31.67;27.97;;;1.80;99.90;;;;;;5046994;28;20499;-72
2021/12/03 07:14:24;;;;;;;33.23;27.97;;;1.80;99.90;;;;;;5049780;28;20564;-72
2021/12/03 07:16:50;;;;;;;30.27;25.33;;;1.80;99.90;;;;;;5052109;28;20044;-72
2021/12/03 07:19:16;;;;;;;29.63;25.77;;;1.80;99.90;;;;;;5074701;28;20048;-72
2021/12/03 07:21:42;;;;;;;33.17;27.93;;;1.90;99.90;;;;;;5064934;28;20433;-72
2021/12/03 07:24:07;;;;;;;33.50;28.97;;;1.90;99.90;;;;;;5064718;28;20037;-71
2021/12/03 07:26:33;;;;;;;34.03;29.67;;;1.90;99.90;;;;;;5048183;28;20538;-71
2021/12/03 07:28:59;;;;;;;33.17;29.33;;;1.90;99.90;;;;;;5064724;28;20071;-71
2021/12/03 07:31:25;;;;;;;33.33;27.37;;;1.90;99.90;;;;;;5066833;28;20426;-72
2021/12/03 07:33:53;;;;;;;31.53;28.10;;;2.00;99.90;;;;;;5034378;28;20115;-71
2021/12/03 07:36:20;;;;;;;34.80;28.17;;;2.00;99.90;;;;;;5064948;28;20060;-71
2021/12/03 07:38:46;;;;;;;32.47;25.77;;;2.00;99.90;;;;;;5047752;28;20053;-71
2021/12/03 07:41:12;;;;;;;33.27;26.20;;;2.00;99.90;;;;;;5060339;28;20058;-71
2021/12/03 07:43:38;;;;;;;29.63;25.93;;;2.10;99.90;;;;;;5082405;28;20036;-72
2021/12/03 07:46:04;;;;;;;28.23;24.77;;;2.10;99.90;;;;;;5063535;28;20174;-72
2021/12/03 07:48:30;;;;;;;32.63;26.70;;;2.00;99.90;;;;;;5069038;28;20044;-72
2021/12/03 07:50:57;;;;;;;36.67;26.10;;;2.10;99.90;;;;;;5064474;28;20049;-72
2021/12/03 07:53:24;;;;;;;31.27;24.83;;;2.10;99.90;;;;;;5080692;28;20088;-72
2021/12/03 07:55:51;;;;;;;28.57;23.60;;;2.10;99.90;;;;;;5069353;28;20037;-72
2021/12/03 07:58:19;;;;;;;32.67;25.13;;;2.20;99.90;;;;;;5065523;28;20068;-72
2021/12/03 08:00:45;;;;;;;30.53;23.27;;;2.20;99.90;;;;;;5063010;28;20097;-71
2021/12/03 08:03:12;;;;;;;30.93;24.60;;;2.20;99.90;;;;;;5068342;28;20098;-71
2021/12/03 08:05:39;;;;;;;29.80;22.67;;;2.20;99.90;;;;;;5072484;28;20141;-72
2021/12/03 08:08:06;;;;;;;32.70;24.60;;;2.20;99.90;;;;;;5076089;28;20046;-71
2021/12/03 08:10:34;;;;;;;29.83;25.00;;;2.30;99.90;;;;;;5077201;28;20474;-71
2021/12/03 08:13:01;;;;;;;28.93;22.53;;;2.30;99.90;;;;;;5071933;28;20153;-71
2021/12/03 08:15:26;;;;;;;30.77;24.73;;;2.30;99.90;;;;;;5071915;28;20491;-71
2021/12/03 08:17:52;;;;;;;37.03;25.23;;;2.40;99.90;;;;;;5053525;28;20069;-71
2021/12/03 08:20:19;;;;;;;30.70;24.47;;;2.40;99.90;;;;;;5056165;28;20481;-71
2021/12/03 08:22:45;;;;;;;27.40;23.60;;;2.40;99.90;;;;;;5058929;28;20698;-71
2021/12/03 08:25:11;;;;;;;35.83;26.97;;;2.50;99.90;;;;;;5038478;28;20040;-71
2021/12/03 08:27:39;;;;;;;33.83;26.30;;;2.60;99.90;;;;;;5056544;28;20060;-71
2021/12/03 08:30:08;;;;;;;35.03;28.03;;;2.60;99.90;;;;;;5060656;28;20036;-71
2021/12/03 08:32:34;;;;;;;34.90;29.10;;;2.60;99.90;;;;;;5073658;28;20040;-71
2021/12/03 08:35:00;;;;;;;40.30;30.47;;;2.50;99.90;;;;;;5067770;28;20055;-71
2021/12/03 08:37:26;;;;;;;42.47;32.53;;;2.60;99.90;;;;;;5054140;28;20121;-70
2021/12/03 08:39:52;;;;;;;36.33;30.03;;;2.60;99.90;;;;;;5059396;28;20150;-71
2021/12/03 08:42:18;;;;;;;47.23;33.70;;;2.60;99.90;;;;;;5042271;28;20773;-71
2021/12/03 08:44:45;;;;;;;42.60;33.57;;;2.70;99.90;;;;;;5061503;28;20651;-71
2021/12/03 08:47:11;;;;;;;48.23;36.93;;;2.70;99.90;;;;;;5069964;28;20052;-72
2021/12/03 08:49:39;;;;;;;44.00;36.17;;;2.80;99.90;;;;;;5072229;28;20059;-71
2021/12/03 08:52:28;;;;;;;44.97;38.17;;;2.70;99.90;;;;;;5056350;28;20037;-71
2021/12/03 08:54:55;;;;;;;48.17;39.13;;;2.70;99.90;;;;;;5036664;28;20414;-71
2021/12/03 08:57:24;;;;;;;50.13;41.03;;;2.70;99.90;;;;;;5061360;28;20044;-71
2021/12/03 08:59:52;;;;;;;57.73;43.53;;;2.70;99.90;;;;;;5076727;28;20037;-71
2021/12/03 09:02:18;;;;;;;51.30;43.17;;;2.70;99.90;;;;;;5067668;28;20114;-71
2021/12/03 09:04:45;;;;;;;53.23;45.27;;;2.70;99.90;;;;;;5070973;28;20032;-71
2021/12/03 09:07:11;;;;;;;51.63;45.07;;;2.70;99.90;;;;;;5052172;28;20055;-71
2021/12/03 09:09:36;;;;;;;55.93;46.40;;;2.70;99.90;;;;;;5047991;28;20056;-71
2021/12/03 09:12:03;;;;;;;53.73;45.23;;;2.70;99.90;;;;;;5062900;28;20040;-71
2021/12/03 09:17:17;;;;;;;59.93;47.63;;;2.70;99.90;;;;;;5054116;28;20519;-72
2021/12/03 09:22:18;;;;;;;55.87;45.90;;;2.80;99.90;;;;;;5070123;28;20037;-71
2021/12/03 09:24:44;;;;;;;57.37;47.73;;;2.80;99.90;;;;;;5072820;28;20044;-71
2021/12/03 09:27:10;;;;;;;55.40;45.80;;;2.80;99.90;;;;;;5056158;28;20465;-72
2021/12/03 09:29:37;;;;;;;56.73;45.73;;;2.80;99.90;;;;;;5068438;28;20079;-71
2021/12/03 09:32:03;;;;;;;57.53;45.93;;;2.80;99.90;;;;;;5054391;28;20036;-71
2021/12/03 09:34:31;;;;;;;56.07;44.67;;;2.90;99.90;;;;;;5054762;28;20105;-71
2021/12/03 09:36:57;;;;;;;63.70;47.20;;;2.90;99.90;;;;;;5071211;28;20116;-71
2021/12/03 09:39:24;;;;;;;52.93;44.23;;;2.90;99.90;;;;;;5052301;28;20079;-71
2021/12/03 09:41:52;;;;;;;54.27;40.73;;;3.00;99.90;;;;;;5054221;28;20177;-71
2021/12/03 09:44:19;;;;;;;51.60;41.27;;;3.00;99.90;;;;;;5069778;28;20101;-71
2021/12/03 09:46:46;;;;;;;48.97;40.33;;;3.00;99.90;;;;;;5055035;28;20040;-71
2021/12/03 09:54:35;;;;;;;48.90;37.70;;;3.10;99.90;;;;;;5062956;28;20050;-71
2021/12/03 09:57:06;;;;;;;46.17;37.63;;;3.10;99.90;;;;;;5056468;28;20135;-71
2021/12/03 10:13:22;;;;;;;45.10;32.27;;;3.40;99.90;;;;;;4999197;28;20061;-71
2021/12/03 10:16:04;;;;;;;36.25;28.00;;;3.40;99.90;;;;;;5056083;28;20060;-71
2021/12/03 10:19:18;;;;;;;40.03;30.53;;;3.50;99.90;;;;;;5074734;28;20658;-72
2021/12/03 10:22:03;;;;;;;38.00;27.67;;;3.50;99.90;;;;;;5075402;28;20980;-71
2021/12/03 10:30:12;;;;;;;31.50;23.07;;;3.60;99.90;;;;;;5073834;28;20059;-71
2021/12/03 10:38:04;;;;;;;28.10;20.07;;;3.60;99.90;;;;;;5062765;28;20057;-72
2021/12/03 10:48:48;;;;;;;26.87;17.20;;;3.60;99.90;;;;;;5065102;28;20311;-71
2021/12/03 10:51:29;;;;;;;29.70;16.57;;;3.70;99.90;;;;;;5038254;28;20040;-71
2021/12/03 11:00:11;;;;;;;25.07;12.17;;;3.80;99.90;;;;;;5058309;28;20046;-71
2021/12/03 11:33:37;;;;;;;23.90;10.77;;;3.70;99.90;;;;;;5071880;28;20087;-71
2021/12/03 11:37:42;;;;;;;23.00;10.40;;;3.70;99.90;;;;;;5084331;28;20062;-73
2021/12/03 11:40:29;;;;;;;23.83;10.17;;;3.70;99.90;;;;;;5076743;28;20063;-72
2021/12/03 11:46:44;;;;;;;20.47;9.73;;;3.60;99.90;;;;;;5055765;28;20040;-73
2021/12/03 11:49:50;;;;;;;19.30;9.57;;;3.60;99.90;;;;;;5077255;28;20068;-72
2021/12/03 13:20:29;;;;;;;18.17;14.20;;;3.50;99.90;;;;;;5056391;28;20048;-72
2021/12/03 14:19:22;;;;;;;17.43;10.77;;;3.80;99.90;;;;;;5065999;28;20071;-72
2021/12/03 14:43:13;;;;;;;16.47;10.57;;;4.00;99.90;;;;;;5080778;28;20040;-73
2021/12/03 14:48:32;;;;;;;16.40;11.20;;;4.10;99.90;;;;;;5066774;28;20048;-71
2021/12/03 14:54:48;;;;;;;16.27;10.90;;;4.10;99.90;;;;;;5041000;28;20041;-72
2021/12/03 14:57:21;;;;;;;13.40;10.70;;;4.20;99.90;;;;;;5063088;28;20044;-72
2021/12/03 14:59:51;;;;;;;14.83;10.80;;;4.20;99.90;;;;;;5059922;28;20068;-72
2021/12/03 15:02:34;;;;;;;13.05;10.20;;;4.30;99.90;;;;;;5062291;28;20080;-72
2021/12/03 15:07:46;;;;;;;14.17;10.73;;;4.30;99.90;;;;;;5069368;28;20086;-72
2021/12/03 15:10:23;;;;;;;14.70;10.40;;;4.40;99.90;;;;;;5084604;28;20036;-73
2021/12/03 15:31:31;;;;;;;13.20;10.70;;;4.50;99.90;;;;;;5063655;28;20529;-72
2021/12/03 15:34:09;;;;;;;15.30;11.02;;;4.50;99.90;;;;;;5071544;28;20577;-72
2021/12/03 15:53:51;;;;;;;14.73;13.23;;;4.50;99.90;;;;;;5072304;28;20044;-72
2021/12/03 16:06:20;;;;;;;16.53;14.83;;;4.50;99.90;;;;;;5055173;28;20098;-71
2021/12/03 16:08:48;;;;;;;16.43;14.17;;;4.60;99.90;;;;;;5055930;28;20040;-72
2021/12/03 16:11:35;;;;;;;16.30;14.70;;;4.60;99.90;;;;;;5057713;28;20047;-72
2021/12/03 16:22:24;;;;;;;19.97;16.93;;;4.60;99.90;;;;;;5054088;28;20500;-72
2021/12/03 16:43:52;;;;;;;20.77;18.67;;;4.60;99.90;;;;;;5066704;28;20049;-72
2021/12/03 16:51:51;;;;;;;25.83;23.23;;;4.60;99.90;;;;;;5074365;28;20129;-71
2021/12/03 16:57:14;;;;;;;24.37;22.00;;;4.50;99.90;;;;;;5054669;28;20037;-71
2021/12/03 16:59:43;;;;;;;27.23;24.43;;;4.60;99.90;;;;;;5072363;28;20612;-72
2021/12/03 17:02:19;;;;;;;29.20;26.50;;;4.50;99.90;;;;;;5057965;28;20411;-71
2021/12/03 17:13:07;;;;;;;32.63;29.43;;;4.50;99.90;;;;;;5053286;28;20041;-71
2021/12/03 17:16:02;;;;;;;31.30;28.27;;;4.50;99.90;;;;;;5055702;28;20052;-72
2021/12/03 17:53:06;;;;;;;37.00;32.97;;;4.50;99.90;;;;;;5043039;28;20041;-72
2021/12/03 17:58:20;;;;;;;42.03;37.60;;;4.60;99.90;;;;;;5070249;28;20135;-71
2021/12/03 18:03:43;;;;;;;40.97;36.53;;;4.60;99.90;;;;;;5071119;28;20044;-71
2021/12/03 18:12:20;;;;;;;44.00;39.20;;;4.60;99.90;;;;;;5054056;28;20041;-71
2021/12/03 18:52:28;;;;;;;57.53;44.07;;;4.60;99.90;;;;;;5078132;28;20324;-72
2021/12/03 18:55:01;;;;;;;51.22;40.28;;;4.70;99.90;;;;;;5041868;28;20043;-73
2021/12/03 18:57:30;;;;;;;58.33;44.07;;;4.60;99.90;;;;;;5049793;28;20072;-72
2021/12/03 19:00:03;;;;;;;59.13;45.67;;;4.70;99.90;;;;;;5025316;28;20153;-72
2021/12/03 19:02:29;;;;;;;57.57;44.80;;;4.70;99.90;;;;;;5059265;28;20056;-72
2021/12/03 19:05:07;;;;;;;62.27;45.00;;;4.60;99.90;;;;;;5036150;28;20055;-72
2021/12/03 19:07:46;;;;;;;55.27;44.70;;;4.70;99.90;;;;;;5069797;28;20113;-72
2021/12/03 19:10:18;;;;;;;58.70;44.17;;;4.70;99.90;;;;;;5051336;28;20052;-72
2021/12/03 19:12:48;;;;;;;64.13;47.30;;;4.70;99.90;;;;;;5036707;28;20040;-72
2021/12/03 19:15:14;;;;;;;57.28;45.35;;;4.60;99.90;;;;;;5076767;28;20054;-72
2021/12/03 19:17:42;;;;;;;61.03;46.43;;;4.70;99.90;;;;;;5054697;28;20055;-73
2021/12/03 19:20:14;;;;;;;65.53;47.50;;;4.70;99.90;;;;;;5051293;28;20036;-72
2021/12/03 19:22:39;;;;;;;66.03;47.23;;;4.70;99.90;;;;;;5076946;28;20039;-73
2021/12/03 19:25:06;;;;;;;62.07;46.67;;;4.70;99.90;;;;;;5076329;28;20084;-72
2021/12/03 19:27:31;;;;;;;65.40;47.30;;;4.60;99.90;;;;;;5054145;28;20135;-72
2021/12/03 19:30:00;;;;;;;65.53;48.63;;;4.60;99.90;;;;;;5067753;28;20123;-72
2021/12/03 19:32:28;;;;;;;68.73;48.50;;;4.70;99.90;;;;;;5058853;28;20131;-72
2021/12/03 19:34:58;;;;;;;63.07;46.30;;;4.60;99.90;;;;;;5061684;28;20082;-72
2021/12/03 19:37:27;;;;;;;66.40;47.43;;;4.70;99.90;;;;;;5065500;28;20545;-72
2021/12/03 19:39:54;;;;;;;71.95;49.55;;;4.70;99.90;;;;;;5067219;28;20091;-72
2021/12/03 19:42:27;;;;;;;67.27;47.53;;;4.70;99.90;;;;;;5048222;28;20981;-72
2021/12/03 19:44:56;;;;;;;67.03;46.93;;;4.70;99.90;;;;;;5042039;28;20050;-72
2021/12/03 19:47:35;;;;;;;71.43;47.87;;;4.70;99.90;;;;;;5053878;28;20031;-72
2021/12/03 19:52:38;;;;;;;72.00;48.70;;;4.70;99.90;;;;;;5050806;28;20139;-72
2021/12/03 19:55:04;;;;;;;72.23;47.33;;;4.70;99.90;;;;;;5060133;28;20048;-73
2021/12/03 19:57:30;;;;;;;71.57;47.27;;;4.70;99.90;;;;;;5033504;28;20052;-72
2021/12/03 19:59:56;;;;;;;74.10;49.73;;;4.70;99.90;;;;;;5051983;28;20050;-72
2021/12/03 20:02:22;;;;;;;69.23;46.93;;;4.70;99.90;;;;;;5054023;28;20059;-71